createdAt,value
2022-11-05T00:02:19.629Z,16.75
2022-11-05T00:05:06.051Z,15.60
2022-11-05T00:08:06.439Z,22.55
2022-11-05T00:10:38.457Z,16.23
2022-11-05T00:13:27.844Z,20.52
2022-11-05T00:16:14.582Z,26.15
2022-11-05T00:18:42.088Z,26.15
2022-11-05T00:21:30.028Z,23.23
2022-11-05T00:24:19.259Z,22.52
2022-11-05T00:26:51.150Z,19.60
2022-11-05T00:29:18.638Z,21.27
2022-11-05T00:31:46.549Z,20.67
2022-11-05T00:34:14.107Z,23.63
2022-11-05T00:36:42.035Z,23.55
2022-11-05T00:39:09.575Z,20.70
2022-11-05T00:41:37.550Z,21.83
2022-11-05T00:44:23.910Z,26.40
2022-11-05T00:47:11.743Z,23.83
2022-11-05T00:49:39.325Z,21.65
2022-11-05T00:52:25.945Z,12.98
2022-11-05T00:54:53.565Z,26.02
2022-11-05T00:57:21.370Z,19.35
2022-11-05T00:59:48.929Z,20.20
2022-11-05T01:02:16.970Z,21.20
2022-11-05T01:04:44.668Z,20.48
2022-11-05T01:07:12.603Z,17.38
2022-11-05T01:09:40.094Z,16.98
2022-11-05T01:12:07.973Z,24.52
2022-11-05T01:14:35.585Z,22.48
2022-11-05T01:17:03.481Z,17.58
2022-11-05T01:19:31.978Z,19.05
2022-11-05T01:21:59.906Z,20.42
2022-11-05T01:24:27.524Z,21.73
2022-11-05T01:26:55.374Z,16.13
2022-11-05T01:29:22.921Z,19.27
2022-11-05T01:31:50.855Z,16.05
2022-11-05T01:34:18.411Z,18.48
2022-11-05T01:36:46.461Z,20.88
2022-11-05T01:39:14.080Z,24.60
2022-11-05T01:41:42.161Z,21.75
2022-11-05T01:44:57.601Z,15.82
2022-11-05T01:48:03.363Z,17.55
2022-11-05T01:50:58.309Z,17.17
2022-11-05T01:53:35.805Z,23.52
2022-11-05T01:56:14.807Z,18.15
2022-11-05T01:58:53.070Z,26.73
2022-11-05T02:01:21.269Z,15.35
2022-11-05T02:03:53.523Z,18.30
2022-11-05T02:06:21.762Z,20.42
2022-11-05T02:09:05.770Z,17.30
2022-11-05T02:11:33.720Z,15.65
2022-11-05T02:14:01.643Z,28.50
2022-11-05T02:16:53.042Z,17.38
2022-11-05T02:20:07.749Z,26.20
2022-11-05T02:23:31.818Z,23.30
2022-11-05T02:26:35.957Z,20.48
2022-11-05T02:29:35.408Z,24.05
2022-11-05T02:32:35.777Z,20.48
2022-11-05T02:35:18.105Z,30.52
2022-11-05T02:38:34.564Z,25.52
2022-11-05T02:41:36.578Z,17.63
2022-11-05T02:44:38.547Z,19.85
2022-11-05T02:47:18.194Z,27.13
2022-11-05T02:50:24.546Z,25.33
2022-11-05T02:53:14.812Z,34.58
2022-11-05T02:55:59.793Z,34.38
2022-11-05T02:58:31.103Z,30.40
2022-11-05T03:01:00.428Z,27.50
2022-11-05T03:03:35.184Z,40.38
2022-11-05T03:06:31.004Z,41.20
2022-11-05T03:09:19.660Z,42.83
2022-11-05T03:12:45.693Z,40.17
2022-11-05T03:15:42.421Z,41.85
2022-11-05T03:18:43.486Z,40.92
2022-11-05T03:21:41.404Z,47.92
2022-11-05T03:24:30.213Z,41.60
2022-11-05T03:27:23.683Z,39.53
2022-11-05T03:30:00.429Z,38.80
2022-11-05T03:32:32.913Z,36.95
2022-11-05T03:35:19.889Z,37.70
2022-11-05T03:37:52.612Z,40.95
2022-11-05T03:40:24.080Z,39.97
2022-11-05T03:42:56.402Z,40.60
2022-11-05T03:45:40.750Z,34.00
2022-11-05T03:48:13.207Z,28.02
2022-11-05T03:50:53.160Z,31.10
2022-11-05T03:53:30.284Z,29.45
2022-11-05T03:56:31.147Z,29.00
2022-11-05T03:59:02.040Z,26.05
2022-11-05T04:01:31.348Z,32.13
2022-11-05T04:03:58.970Z,23.73
2022-11-05T04:06:45.519Z,23.75
2022-11-05T04:09:36.358Z,25.60
2022-11-05T04:12:23.039Z,22.27
2022-11-05T04:14:50.852Z,26.02
2022-11-05T04:17:18.680Z,23.50
2022-11-05T04:20:04.992Z,26.80
2022-11-05T04:22:53.736Z,27.13
2022-11-05T04:25:22.441Z,27.60
2022-11-05T04:27:51.250Z,27.83
2022-11-05T04:30:20.237Z,20.52
2022-11-05T04:35:36.677Z,19.55
2022-11-05T04:38:07.812Z,16.13
2022-11-05T04:40:35.773Z,21.10
2022-11-05T04:43:04.821Z,15.50
2022-11-05T04:45:34.810Z,20.30
2022-11-05T04:48:04.238Z,18.77
2022-11-05T04:50:33.274Z,19.92
2022-11-05T04:53:01.193Z,21.77
2022-11-05T04:55:28.916Z,20.00
2022-11-05T04:57:56.998Z,19.30
2022-11-05T05:00:24.979Z,16.25
2022-11-05T05:02:53.031Z,18.17
2022-11-05T05:05:22.606Z,15.65
2022-11-05T05:07:50.637Z,16.67
2022-11-05T05:10:18.313Z,15.38
2022-11-05T05:12:46.203Z,20.83
2022-11-05T05:15:13.989Z,20.35
2022-11-05T05:17:41.906Z,17.50
2022-11-05T05:20:28.141Z,17.30
2022-11-05T05:22:56.220Z,16.85
2022-11-05T05:25:23.906Z,17.48
2022-11-05T05:27:51.764Z,17.55
2022-11-05T05:30:19.361Z,24.20
2022-11-05T05:32:47.216Z,19.63
2022-11-05T05:35:15.121Z,17.95
2022-11-05T05:37:43.426Z,20.98
2022-11-05T05:40:11.939Z,19.98
2022-11-05T05:42:43.181Z,22.10
2022-11-05T05:45:12.778Z,22.58
2022-11-05T05:50:08.381Z,18.17
2022-11-05T05:52:36.194Z,20.30
2022-11-05T05:55:04.467Z,23.27
2022-11-05T05:57:32.469Z,18.65
2022-11-05T06:00:01.943Z,20.83
2022-11-05T06:05:07.932Z,21.48
2022-11-05T06:07:37.404Z,22.77
2022-11-05T06:10:06.349Z,22.95
2022-11-05T06:12:34.313Z,25.75
2022-11-05T06:15:01.914Z,27.77
2022-11-05T06:17:29.813Z,31.45
2022-11-05T06:19:57.271Z,23.15
2022-11-05T06:22:27.231Z,23.25
2022-11-05T06:24:55.158Z,22.77
2022-11-05T06:27:23.031Z,25.15
2022-11-05T06:29:50.519Z,24.65
2022-11-05T06:32:18.312Z,21.63
2022-11-05T06:34:45.845Z,29.02
2022-11-05T06:37:13.675Z,31.60
2022-11-05T06:39:41.154Z,30.95
2022-11-05T06:42:18.422Z,32.42
2022-11-05T06:44:46.885Z,27.67
2022-11-05T06:47:15.015Z,29.65
2022-11-05T06:49:42.517Z,33.58
2022-11-05T06:52:11.237Z,27.15
2022-11-05T06:54:39.075Z,27.58
2022-11-05T06:57:09.913Z,29.90
2022-11-05T06:59:39.075Z,37.90
2022-11-05T07:04:35.323Z,41.53
2022-11-05T07:07:03.305Z,41.50
2022-11-05T07:09:30.896Z,40.10
2022-11-05T07:11:58.958Z,47.22
2022-11-05T07:14:26.446Z,42.38
2022-11-05T07:16:54.280Z,42.80
2022-11-05T07:19:21.830Z,45.65
2022-11-05T07:21:50.937Z,41.75
2022-11-05T07:24:18.607Z,43.30
2022-11-05T07:26:46.541Z,44.85
2022-11-05T07:29:14.061Z,43.25
2022-11-05T07:31:41.911Z,37.78
2022-11-05T07:34:09.354Z,33.63
2022-11-05T07:36:39.463Z,36.70
2022-11-05T07:39:07.309Z,38.67
2022-11-05T07:41:35.123Z,42.83
2022-11-05T07:44:03.924Z,41.15
2022-11-05T07:46:32.153Z,48.50
2022-11-05T07:48:59.638Z,44.45
2022-11-05T07:51:27.591Z,46.20
2022-11-05T07:53:55.007Z,49.55
2022-11-05T07:56:25.714Z,48.75
2022-11-05T07:58:53.172Z,47.25
2022-11-05T08:01:21.114Z,42.53
2022-11-05T08:03:48.824Z,42.95
2022-11-05T08:06:16.801Z,44.35
2022-11-05T08:08:44.314Z,40.20
2022-11-05T08:11:12.845Z,40.75
2022-11-05T08:13:40.481Z,36.60
2022-11-05T08:16:09.659Z,44.33
2022-11-05T08:18:37.683Z,41.83
2022-11-05T08:21:06.366Z,47.70
2022-11-05T08:26:39.867Z,42.72
2022-11-05T08:29:07.277Z,49.53
2022-11-05T08:31:37.134Z,51.20
2022-11-05T08:36:32.304Z,47.28
2022-11-05T08:38:59.813Z,47.60
2022-11-05T08:41:27.621Z,47.70
2022-11-05T08:43:56.621Z,52.17
2022-11-05T08:46:24.381Z,44.97
2022-11-05T08:48:51.869Z,48.28
2022-11-05T08:51:38.628Z,48.10
2022-11-05T08:54:06.228Z,57.53
2022-11-05T08:56:34.066Z,54.58
2022-11-05T08:59:01.658Z,55.13
2022-11-05T09:01:29.564Z,51.38
2022-11-05T09:03:57.146Z,48.72
2022-11-05T09:06:25.027Z,45.90
2022-11-05T09:08:52.462Z,49.83
2022-11-05T09:11:20.234Z,49.55
2022-11-05T09:13:47.724Z,48.08
2022-11-05T09:16:25.003Z,47.67
2022-11-05T09:18:52.835Z,47.85
2022-11-05T09:21:20.600Z,46.63
2022-11-05T09:23:48.330Z,51.13
2022-11-05T09:26:16.179Z,46.95
2022-11-05T09:28:43.723Z,48.25
2022-11-05T09:31:12.682Z,39.97
2022-11-05T09:33:41.543Z,47.55
2022-11-05T09:36:09.670Z,42.00
2022-11-05T09:38:37.251Z,51.08
2022-11-05T09:41:31.164Z,50.75
2022-11-05T09:44:37.570Z,50.78
2022-11-05T09:47:13.978Z,47.40
2022-11-05T09:49:54.366Z,45.05
2022-11-05T09:52:27.983Z,49.35
2022-11-05T09:54:56.831Z,57.78
2022-11-05T09:57:56.034Z,75.68
2022-11-05T10:00:23.840Z,75.65
2022-11-05T10:03:19.450Z,76.88
2022-11-05T10:05:49.289Z,66.63
2022-11-05T10:08:32.826Z,54.20
2022-11-05T10:11:16.519Z,48.13
2022-11-05T10:14:00.183Z,50.00
2022-11-05T10:16:31.610Z,47.42
2022-11-05T10:19:06.510Z,47.17
2022-11-05T10:22:04.436Z,48.00
2022-11-05T10:24:23.543Z,53.95
2022-11-05T10:26:53.894Z,51.42
2022-11-05T10:29:30.267Z,57.65
2022-11-05T10:32:00.356Z,63.38
2022-11-05T10:34:33.796Z,59.83
2022-11-05T10:37:01.644Z,64.40
2022-11-05T10:39:32.583Z,65.22
2022-11-05T10:42:43.078Z,58.13
2022-11-05T10:45:22.919Z,57.92
2022-11-05T10:47:59.804Z,62.83
2022-11-05T10:50:30.171Z,67.88
2022-11-05T10:53:07.945Z,80.40
2022-11-05T10:55:41.360Z,72.00
2022-11-05T10:58:30.356Z,74.57
2022-11-05T11:00:58.237Z,80.28
2022-11-05T11:04:03.776Z,75.32
2022-11-05T11:06:37.881Z,86.47
2022-11-05T11:09:29.054Z,88.90
2022-11-05T11:12:21.712Z,80.72
2022-11-05T11:15:02.641Z,92.07
2022-11-05T11:17:32.832Z,69.10
2022-11-05T11:20:28.063Z,63.90
2022-11-05T11:23:13.956Z,52.75
2022-11-05T11:26:01.405Z,38.85
2022-11-05T11:28:48.136Z,30.63
2022-11-05T11:31:22.931Z,22.00
2022-11-05T11:33:58.407Z,23.50
2022-11-05T11:36:33.482Z,26.48
2022-11-05T11:39:06.757Z,25.70
2022-11-05T11:41:42.052Z,21.27
2022-11-05T11:44:27.319Z,18.65
2022-11-05T11:47:02.683Z,17.85
2022-11-05T11:49:57.979Z,21.77
2022-11-05T11:52:34.811Z,21.30
2022-11-05T11:55:11.837Z,17.02
2022-11-05T11:57:52.991Z,19.55
2022-11-05T12:00:24.161Z,19.88
2022-11-05T12:03:31.615Z,20.48
2022-11-05T12:06:33.779Z,21.58
2022-11-05T12:09:45.901Z,17.95
2022-11-05T12:12:19.669Z,13.85
2022-11-05T12:15:20.024Z,13.70
2022-11-05T12:18:08.739Z,15.90
2022-11-05T12:21:51.884Z,14.02
2022-11-05T12:25:11.761Z,11.43
2022-11-05T12:28:00.208Z,16.15
2022-11-05T12:30:40.231Z,12.25
2022-11-05T12:33:46.809Z,11.43
2022-11-05T12:36:45.737Z,15.73
2022-11-05T12:39:25.174Z,9.77
2022-11-05T12:42:01.230Z,13.27
2022-11-05T12:44:38.211Z,12.10
2022-11-05T12:47:30.470Z,11.75
2022-11-05T12:50:17.438Z,15.00
2022-11-05T12:53:11.292Z,24.17
2022-11-05T12:55:48.602Z,26.45
2022-11-05T12:58:43.071Z,24.48
2022-11-05T13:01:21.658Z,25.38
2022-11-05T13:04:27.294Z,30.33
2022-11-05T13:06:57.532Z,27.08
2022-11-05T13:09:59.591Z,29.38
2022-11-05T13:12:31.359Z,27.10
2022-11-05T13:15:16.064Z,24.13
2022-11-05T13:17:59.863Z,28.10
2022-11-05T13:20:37.703Z,24.15
2022-11-05T13:23:16.377Z,28.50
2022-11-05T13:25:55.795Z,26.23
2022-11-05T13:28:48.167Z,26.88
2022-11-05T13:31:22.258Z,26.85
2022-11-05T13:33:52.348Z,28.33
2022-11-05T13:36:46.025Z,24.08
2022-11-05T13:39:27.728Z,24.98
2022-11-05T13:42:30.734Z,18.95
2022-11-05T13:45:35.156Z,17.20
2022-11-05T13:48:27.520Z,17.10
2022-11-05T13:51:27.429Z,14.85
2022-11-05T13:54:19.053Z,17.77
2022-11-05T13:57:39.056Z,15.80
2022-11-05T14:00:27.363Z,12.05
2022-11-05T14:02:58.058Z,10.65
2022-11-05T14:05:40.142Z,12.10
2022-11-05T14:08:16.188Z,15.20
2022-11-05T14:10:56.992Z,14.88
2022-11-05T14:13:36.862Z,12.20
2022-11-05T14:16:09.173Z,10.80
2022-11-05T14:18:47.810Z,8.68
2022-11-05T14:21:27.682Z,7.93
2022-11-05T14:26:28.773Z,7.78
2022-11-05T14:29:24.874Z,11.00
2022-11-05T14:32:09.609Z,11.93
2022-11-05T14:35:14.449Z,9.35
2022-11-05T14:37:53.356Z,8.25
2022-11-05T14:40:47.561Z,8.48
2022-11-05T14:43:19.304Z,15.30
2022-11-05T14:46:06.467Z,9.10
2022-11-05T14:48:58.416Z,16.40
2022-11-05T14:51:44.287Z,14.88
2022-11-05T14:54:24.277Z,26.52
2022-11-05T14:56:59.457Z,22.23
2022-11-05T14:59:32.952Z,33.70
2022-11-05T15:02:15.083Z,33.50
2022-11-05T15:04:45.636Z,29.88
2022-11-05T15:07:37.515Z,39.58
2022-11-05T15:10:17.149Z,49.20
2022-11-05T15:12:56.608Z,38.53
2022-11-05T15:15:30.337Z,37.38
2022-11-05T15:18:31.045Z,28.23
2022-11-05T15:21:02.501Z,28.52
2022-11-05T15:23:40.965Z,30.30
2022-11-05T15:26:34.464Z,21.85
2022-11-05T15:29:02.075Z,27.77
2022-11-05T15:31:43.214Z,24.13
2022-11-05T15:34:31.880Z,23.92
2022-11-05T15:37:22.049Z,24.02
2022-11-05T15:39:55.515Z,24.00
2022-11-05T15:42:26.649Z,28.70
2022-11-05T15:44:59.820Z,28.45
2022-11-05T15:47:34.654Z,30.83
2022-11-05T15:50:14.013Z,31.30
2022-11-05T15:52:53.901Z,35.75
2022-11-05T15:55:25.280Z,36.60
2022-11-05T15:58:04.451Z,38.75
2022-11-05T16:00:36.312Z,38.35
2022-11-05T16:03:32.337Z,37.13
2022-11-05T16:06:01.760Z,37.42
2022-11-05T16:08:31.579Z,40.60
2022-11-05T16:11:00.871Z,38.55
2022-11-05T16:13:41.295Z,37.83
2022-11-05T16:16:14.825Z,42.53
2022-11-05T16:18:44.810Z,46.03
2022-11-05T16:21:17.627Z,44.47
2022-11-05T16:23:48.381Z,46.20
2022-11-05T16:29:47.581Z,39.03
2022-11-05T16:32:18.272Z,43.47
2022-11-05T16:34:50.941Z,46.50
2022-11-05T16:37:24.195Z,48.33
2022-11-05T16:39:53.273Z,50.63
2022-11-05T16:42:23.423Z,43.28
2022-11-05T16:44:54.143Z,47.35
2022-11-05T16:47:23.588Z,46.05
2022-11-05T16:49:51.449Z,51.38
2022-11-05T16:52:19.522Z,49.95
2022-11-05T16:54:47.355Z,46.17
2022-11-05T16:57:27.476Z,47.92
2022-11-05T16:59:57.104Z,49.13
2022-11-05T17:02:25.072Z,51.83
2022-11-05T17:04:53.145Z,49.38
2022-11-05T17:07:20.684Z,47.70
2022-11-05T17:09:48.549Z,44.25
2022-11-05T17:12:16.839Z,46.88
2022-11-05T17:14:44.576Z,35.30
2022-11-05T17:17:12.178Z,39.28
2022-11-05T17:19:42.641Z,44.70
2022-11-05T17:22:10.293Z,35.13
2022-11-05T17:24:38.937Z,43.55
2022-11-05T17:27:06.483Z,54.65
2022-11-05T17:29:35.116Z,46.55
2022-11-05T17:32:02.710Z,39.90
2022-11-05T17:34:30.543Z,42.80
2022-11-05T17:36:58.244Z,41.72
2022-11-05T17:39:31.212Z,44.22
2022-11-05T17:41:59.253Z,46.38
2022-11-05T17:44:27.055Z,44.05
2022-11-05T17:46:54.520Z,40.95
2022-11-05T17:49:22.322Z,36.75
2022-11-05T17:51:49.798Z,33.38
2022-11-05T17:54:17.587Z,44.17
2022-11-05T17:56:45.061Z,42.25
2022-11-05T17:59:13.143Z,37.45
2022-11-05T18:01:43.635Z,42.10
2022-11-05T18:04:12.516Z,41.50
2022-11-05T18:06:41.331Z,43.03
2022-11-05T18:09:11.113Z,34.50
2022-11-05T18:14:08.396Z,35.25
2022-11-05T18:16:36.178Z,35.92
2022-11-05T18:19:04.552Z,40.72
2022-11-05T18:21:32.124Z,33.25
2022-11-05T18:24:04.402Z,33.20
2022-11-05T18:26:32.884Z,34.30
2022-11-05T18:29:02.490Z,32.45
2022-11-05T18:31:30.163Z,37.08
2022-11-05T18:33:59.878Z,33.47
2022-11-05T18:36:30.910Z,37.95
2022-11-05T18:39:01.152Z,36.65
2022-11-05T18:41:28.897Z,36.92
2022-11-05T18:44:01.697Z,36.00
2022-11-05T18:46:56.965Z,40.58
2022-11-05T18:49:21.927Z,34.55
2022-11-05T18:51:49.440Z,38.13
2022-11-05T18:54:18.673Z,41.60
2022-11-05T18:56:46.605Z,37.47
2022-11-05T19:02:06.741Z,36.10
2022-11-05T19:04:38.534Z,34.58
2022-11-05T19:07:08.173Z,34.78
2022-11-05T19:09:37.887Z,33.22
2022-11-05T19:12:07.178Z,38.15
2022-11-05T19:14:36.121Z,26.90
2022-11-05T19:17:04.318Z,25.00
2022-11-05T19:19:32.182Z,27.17
2022-11-05T19:21:59.823Z,27.70
2022-11-05T19:24:27.955Z,25.35
2022-11-05T19:26:55.881Z,27.80
2022-11-05T19:29:23.810Z,28.77
2022-11-05T19:31:51.348Z,26.67
2022-11-05T19:34:19.322Z,30.20
2022-11-05T19:36:47.069Z,22.98
2022-11-05T19:39:15.307Z,29.45
2022-11-05T19:41:42.812Z,25.65
2022-11-05T19:44:11.372Z,31.53
2022-11-05T19:46:38.886Z,24.83
2022-11-05T19:49:06.664Z,26.48
2022-11-05T19:51:34.495Z,23.92
2022-11-05T19:54:05.790Z,28.90
2022-11-05T19:56:36.692Z,22.30
2022-11-05T19:59:08.869Z,31.98
2022-11-05T20:01:37.645Z,22.52
2022-11-05T20:04:05.968Z,26.98
2022-11-05T20:06:38.960Z,27.90
2022-11-05T20:09:27.102Z,26.33
2022-11-05T20:11:56.614Z,29.42
2022-11-05T20:14:26.363Z,30.73
2022-11-05T20:16:54.252Z,28.15
2022-11-05T20:19:23.338Z,28.33
2022-11-05T20:21:50.968Z,28.02
2022-11-05T20:24:24.624Z,24.40
2022-11-05T20:26:55.445Z,28.95
2022-11-05T20:29:29.078Z,30.50
2022-11-05T20:32:02.306Z,29.70
2022-11-05T20:34:32.118Z,31.40
2022-11-05T20:39:28.918Z,30.25
2022-11-05T20:41:56.942Z,33.47
2022-11-05T20:44:24.948Z,30.27
2022-11-05T20:46:52.493Z,39.50
2022-11-05T20:49:25.157Z,34.25
2022-11-05T20:51:53.740Z,39.95
2022-11-05T20:54:22.014Z,42.88
2022-11-05T20:56:49.757Z,41.97
2022-11-05T20:59:17.641Z,41.15
2022-11-05T21:01:45.269Z,36.75
2022-11-05T21:04:13.186Z,37.08
2022-11-05T21:06:40.658Z,42.63
2022-11-05T21:09:08.638Z,51.20
2022-11-05T21:11:56.157Z,49.80
2022-11-05T21:14:24.021Z,52.47
2022-11-05T21:16:51.785Z,41.30
2022-11-05T21:19:19.913Z,46.80
2022-11-05T21:21:47.909Z,62.92
2022-11-05T21:24:16.071Z,60.92
2022-11-05T21:26:43.568Z,56.22
2022-11-05T21:29:11.440Z,52.10
2022-11-05T21:31:38.982Z,55.35
2022-11-05T21:34:07.050Z,50.58
2022-11-05T21:36:34.884Z,50.72
2022-11-05T21:39:06.624Z,48.85
2022-11-05T21:41:36.717Z,47.10
2022-11-05T21:44:04.827Z,48.83
2022-11-05T21:46:32.307Z,54.58
2022-11-05T21:49:00.175Z,45.45
2022-11-05T21:51:46.556Z,44.70
2022-11-05T21:54:32.886Z,46.55
2022-11-05T21:57:18.804Z,40.08
2022-11-05T21:59:51.436Z,43.80
2022-11-05T22:02:25.268Z,50.10
2022-11-05T22:04:56.348Z,45.78
2022-11-05T22:07:31.738Z,61.67
2022-11-05T22:10:00.772Z,50.92
2022-11-05T22:12:28.863Z,49.78
2022-11-05T22:14:57.136Z,42.90
2022-11-05T22:17:24.993Z,43.22
2022-11-05T22:19:53.119Z,47.45
2022-11-05T22:22:21.183Z,50.10
2022-11-05T22:24:49.252Z,53.17
2022-11-05T22:27:21.489Z,48.90
2022-11-05T22:29:50.279Z,59.47
2022-11-05T22:32:18.337Z,58.27
2022-11-05T22:34:48.712Z,63.20
2022-11-05T22:37:16.522Z,63.47
2022-11-05T22:39:44.352Z,65.90
2022-11-05T22:42:11.914Z,64.68
2022-11-05T22:44:39.895Z,60.72
2022-11-05T22:47:07.758Z,78.78
2022-11-05T22:49:35.652Z,66.78
2022-11-05T22:52:03.358Z,68.25
2022-11-05T22:54:36.380Z,73.30
2022-11-05T22:57:06.865Z,72.22
2022-11-05T22:59:34.718Z,70.43
2022-11-05T23:02:08.248Z,71.28
2022-11-05T23:04:38.219Z,80.35
2022-11-05T23:07:27.647Z,71.85
2022-11-05T23:10:14.676Z,78.25
2022-11-05T23:12:44.458Z,72.47
2022-11-05T23:15:31.764Z,75.85
2022-11-05T23:18:17.791Z,77.43
2022-11-05T23:21:04.260Z,71.25
2022-11-05T23:23:50.494Z,65.70
2022-11-05T23:26:36.866Z,68.05
2022-11-05T23:29:04.427Z,63.22
2022-11-05T23:31:51.567Z,57.95
2022-11-05T23:34:19.879Z,61.90
2022-11-05T23:37:06.563Z,63.37
2022-11-05T23:39:39.662Z,61.60
2022-11-05T23:42:29.728Z,67.78
2022-11-05T23:45:15.753Z,58.67
2022-11-05T23:48:02.227Z,54.13
2022-11-05T23:50:35.634Z,61.72
2022-11-05T23:53:05.161Z,50.88
2022-11-05T23:55:32.672Z,50.45
2022-11-05T23:58:00.749Z,47.00
